createdAt,value
2019-02-14T00:00:47.456Z,66.58
2019-02-14T00:01:52.602Z,66.58
2019-02-14T00:02:57.584Z,66.58
2019-02-14T00:04:02.530Z,66.55
2019-02-14T00:05:15.908Z,66.54
2019-02-14T00:06:14.426Z,66.58
2019-02-14T00:07:19.364Z,66.61
2019-02-14T00:08:24.701Z,66.63
2019-02-14T00:09:30.170Z,66.63
2019-02-14T00:10:35.968Z,66.66
2019-02-14T00:11:41.357Z,66.64
2019-02-14T00:12:46.545Z,66.67
2019-02-14T00:13:51.585Z,66.64
2019-02-14T00:14:56.819Z,66.66
2019-02-14T00:16:02.027Z,66.64
2019-02-14T00:17:07.033Z,66.67
2019-02-14T00:18:12.026Z,66.72
2019-02-14T00:19:17.671Z,66.77
2019-02-14T00:20:23.772Z,66.78
2019-02-14T00:21:28.725Z,66.80
2019-02-14T00:22:33.957Z,66.84
2019-02-14T00:23:39.128Z,66.86
2019-02-14T00:24:44.320Z,66.85
2019-02-14T00:25:49.297Z,66.82
2019-02-14T00:26:54.653Z,66.76
2019-02-14T00:27:59.635Z,66.71
2019-02-14T00:29:04.653Z,66.71
2019-02-14T00:30:10.173Z,66.68
2019-02-14T00:31:15.146Z,66.73
2019-02-14T00:32:20.470Z,66.79
2019-02-14T00:33:25.403Z,66.83
2019-02-14T00:34:30.308Z,66.87
2019-02-14T00:35:35.209Z,66.90
2019-02-14T00:36:40.146Z,66.96
2019-02-14T00:37:45.331Z,66.99
2019-02-14T00:38:50.345Z,66.93
2019-02-14T00:39:55.825Z,66.88
2019-02-14T00:41:00.749Z,66.84
2019-02-14T00:42:05.793Z,66.85
2019-02-14T00:43:10.794Z,66.82
2019-02-14T00:44:15.854Z,66.74
2019-02-14T00:45:20.980Z,66.71
2019-02-14T00:46:25.947Z,66.76
2019-02-14T00:47:31.091Z,66.74
2019-02-14T00:48:36.039Z,66.70
2019-02-14T00:49:41.156Z,66.72
2019-02-14T00:50:46.072Z,66.71
2019-02-14T00:51:51.375Z,66.69
2019-02-14T00:52:56.319Z,66.62
2019-02-14T00:54:01.233Z,66.60
2019-02-14T00:55:06.453Z,66.53
2019-02-14T00:56:11.633Z,66.48
2019-02-14T00:57:16.523Z,66.47
2019-02-14T00:58:21.441Z,66.44
2019-02-14T00:59:26.421Z,66.40
2019-02-14T01:00:31.405Z,66.40
2019-02-14T01:01:37.125Z,66.38
2019-02-14T01:02:42.052Z,66.42
2019-02-14T01:03:46.944Z,66.44
2019-02-14T01:04:51.883Z,66.46
2019-02-14T01:05:57.113Z,66.49
2019-02-14T01:07:02.440Z,66.47
2019-02-14T01:08:07.355Z,66.45
2019-02-14T01:09:12.592Z,66.49
2019-02-14T01:10:17.566Z,66.46
2019-02-14T01:11:22.629Z,66.41
2019-02-14T01:12:27.839Z,66.46
2019-02-14T01:13:33.124Z,66.40
2019-02-14T01:14:38.113Z,66.39
2019-02-14T01:15:43.721Z,66.33
2019-02-14T01:16:49.096Z,66.23
2019-02-14T01:17:54.369Z,66.19
2019-02-14T01:18:59.297Z,66.16
2019-02-14T01:20:04.807Z,66.12
2019-02-14T01:21:09.782Z,66.08
2019-02-14T01:22:15.085Z,66.04
2019-02-14T01:23:19.991Z,66.00
2019-02-14T01:24:24.966Z,65.97
2019-02-14T01:25:29.949Z,65.90
2019-02-14T01:26:35.263Z,65.87
2019-02-14T01:27:40.149Z,65.82
2019-02-14T01:28:45.571Z,65.76
2019-02-14T01:29:50.462Z,65.72
2019-02-14T01:30:55.484Z,65.67
2019-02-14T01:32:00.726Z,65.62
2019-02-14T01:33:05.754Z,65.59
2019-02-14T01:34:10.687Z,65.55
2019-02-14T01:35:15.694Z,65.56
2019-02-14T01:36:20.725Z,65.62
2019-02-14T01:37:25.630Z,65.62
2019-02-14T01:38:30.678Z,65.70
2019-02-14T01:39:35.581Z,65.73
2019-02-14T01:40:41.134Z,65.70
2019-02-14T01:41:46.323Z,65.65
2019-02-14T01:42:55.323Z,65.62
2019-02-14T01:44:00.486Z,65.61
2019-02-14T01:45:06.662Z,65.56
2019-02-14T01:46:11.930Z,65.51
2019-02-14T01:47:16.809Z,65.49
2019-02-14T01:48:22.043Z,65.46
2019-02-14T01:49:27.207Z,65.45
2019-02-14T01:50:32.120Z,65.43
2019-02-14T01:51:37.123Z,65.38
2019-02-14T01:52:42.132Z,65.40
2019-02-14T01:53:47.085Z,65.38
2019-02-14T01:54:51.994Z,65.39
2019-02-14T01:55:57.412Z,65.34
2019-02-14T01:57:02.396Z,65.35
2019-02-14T01:58:07.356Z,65.34
2019-02-14T01:59:12.197Z,65.33
2019-02-14T02:00:17.456Z,65.37
2019-02-14T02:01:22.425Z,65.36
2019-02-14T02:02:27.415Z,65.36
2019-02-14T02:03:32.393Z,65.36
2019-02-14T02:04:37.641Z,65.35
2019-02-14T02:05:50.408Z,65.32
2019-02-14T02:06:49.382Z,65.30
2019-02-14T02:07:54.337Z,65.30
2019-02-14T02:08:59.433Z,65.30
2019-02-14T02:10:05.069Z,65.29
2019-02-14T02:11:10.414Z,65.31
2019-02-14T02:12:15.372Z,65.38
2019-02-14T02:13:20.858Z,65.40
2019-02-14T02:14:25.796Z,65.38
2019-02-14T02:15:30.729Z,65.39
2019-02-14T02:16:35.690Z,65.44
2019-02-14T02:17:40.583Z,65.48
2019-02-14T02:18:45.745Z,65.51
2019-02-14T02:19:50.784Z,65.54
2019-02-14T02:20:55.752Z,65.56
2019-02-14T02:22:00.780Z,65.61
2019-02-14T02:23:06.076Z,65.62
2019-02-14T02:24:11.141Z,65.69
2019-02-14T02:25:16.237Z,65.73
2019-02-14T02:26:21.203Z,65.76
2019-02-14T02:27:26.321Z,65.79
2019-02-14T02:28:31.434Z,65.81
2019-02-14T02:29:36.704Z,65.81
2019-02-14T02:30:41.980Z,65.81
2019-02-14T02:31:47.258Z,65.82
2019-02-14T02:32:52.565Z,65.79
2019-02-14T02:33:57.487Z,65.82
2019-02-14T02:35:02.502Z,65.80
2019-02-14T02:36:07.500Z,65.81
2019-02-14T02:37:12.413Z,65.82
2019-02-14T02:38:17.657Z,65.88
2019-02-14T02:39:22.972Z,65.93
2019-02-14T02:40:27.883Z,65.96
2019-02-14T02:41:33.434Z,65.99
2019-02-14T02:42:38.457Z,66.02
2019-02-14T02:43:43.380Z,66.02
2019-02-14T02:44:48.270Z,66.05
2019-02-14T02:45:53.228Z,66.08
2019-02-14T02:46:58.465Z,66.11
2019-02-14T02:48:03.503Z,66.09
2019-02-14T02:49:08.506Z,66.08
2019-02-14T02:50:13.651Z,66.07
2019-02-14T02:51:19.083Z,66.06
2019-02-14T02:52:24.335Z,66.06
2019-02-14T02:53:29.560Z,66.08
2019-02-14T02:54:34.739Z,66.09
2019-02-14T02:55:39.723Z,66.11
2019-02-14T02:56:44.638Z,66.09
2019-02-14T02:57:49.832Z,66.09
2019-02-14T02:58:55.201Z,66.14
2019-02-14T03:00:00.309Z,66.17
2019-02-14T03:01:05.317Z,66.22
2019-02-14T03:02:10.266Z,66.29
2019-02-14T03:03:15.308Z,66.28
2019-02-14T03:04:20.364Z,66.26
2019-02-14T03:05:25.607Z,66.22
2019-02-14T03:06:30.878Z,66.22
2019-02-14T03:07:35.811Z,66.20
2019-02-14T03:08:40.773Z,66.23
2019-02-14T03:09:45.738Z,66.30
2019-02-14T03:10:50.647Z,66.32
2019-02-14T03:11:55.809Z,66.37
2019-02-14T03:13:01.101Z,66.41
2019-02-14T03:14:06.112Z,66.47
2019-02-14T03:15:12.348Z,66.51
2019-02-14T03:16:17.362Z,66.53
2019-02-14T03:17:22.457Z,66.56
2019-02-14T03:18:27.368Z,66.56
2019-02-14T03:19:32.340Z,66.58
2019-02-14T03:20:37.262Z,66.59
2019-02-14T03:21:42.193Z,66.59
2019-02-14T03:22:47.229Z,66.59
2019-02-14T03:23:52.206Z,66.58
2019-02-14T03:24:57.159Z,66.60
2019-02-14T03:26:02.093Z,66.60
2019-02-14T03:27:07.145Z,66.63
2019-02-14T03:28:12.097Z,66.60
2019-02-14T03:29:16.994Z,66.60
2019-02-14T03:30:21.996Z,66.64
2019-02-14T03:31:26.919Z,66.67
2019-02-14T03:32:32.179Z,66.67
2019-02-14T03:33:37.071Z,66.64
2019-02-14T03:34:42.508Z,66.68
2019-02-14T03:35:47.547Z,66.73
2019-02-14T03:36:52.427Z,66.76
2019-02-14T03:37:57.337Z,66.78
2019-02-14T03:39:02.257Z,66.77
2019-02-14T03:40:08.705Z,66.80
2019-02-14T03:41:13.672Z,66.85
2019-02-14T03:42:18.601Z,66.86
2019-02-14T03:43:23.973Z,66.85
2019-02-14T03:44:29.208Z,66.83
2019-02-14T03:45:35.041Z,66.85
2019-02-14T03:46:40.028Z,66.87
2019-02-14T03:47:44.936Z,66.83
2019-02-14T03:48:50.289Z,66.83
2019-02-14T03:49:55.589Z,66.82
2019-02-14T03:51:00.579Z,66.89
2019-02-14T03:52:05.517Z,66.89
2019-02-14T03:53:10.492Z,66.93
2019-02-14T03:54:18.633Z,66.95
2019-02-14T03:55:23.563Z,66.91
2019-02-14T03:56:28.990Z,66.91
2019-02-14T03:57:34.034Z,66.91
2019-02-14T03:58:39.218Z,66.91
2019-02-14T03:59:44.515Z,66.95
2019-02-14T04:00:49.456Z,66.94
2019-02-14T04:01:54.413Z,66.90
2019-02-14T04:02:59.352Z,66.87
2019-02-14T04:04:04.336Z,66.91
2019-02-14T04:05:10.038Z,66.88
2019-02-14T04:06:15.286Z,66.86
2019-02-14T04:07:20.331Z,66.79
2019-02-14T04:08:26.562Z,66.80
2019-02-14T04:09:31.581Z,66.78
2019-02-14T04:10:36.512Z,66.74
2019-02-14T04:11:41.663Z,66.70
2019-02-14T04:12:46.671Z,66.65
2019-02-14T04:13:51.600Z,66.62
2019-02-14T04:14:56.524Z,66.60
2019-02-14T04:16:01.509Z,66.57
2019-02-14T04:17:06.376Z,66.58
2019-02-14T04:18:11.443Z,66.59
2019-02-14T04:19:16.435Z,66.60
2019-02-14T04:20:21.922Z,66.61
2019-02-14T04:21:26.854Z,66.59
2019-02-14T04:22:32.498Z,66.58
2019-02-14T04:23:37.431Z,66.59
2019-02-14T04:24:42.406Z,66.61
2019-02-14T04:25:47.659Z,66.61
2019-02-14T04:26:53.119Z,66.61
2019-02-14T04:27:58.046Z,66.61
2019-02-14T04:29:02.962Z,66.65
2019-02-14T04:30:09.454Z,66.64
2019-02-14T04:31:14.442Z,66.64
2019-02-14T04:32:19.460Z,66.60
2019-02-14T04:33:24.427Z,66.59
2019-02-14T04:34:29.401Z,66.59
2019-02-14T04:35:34.685Z,66.58
2019-02-14T04:36:39.722Z,66.58
2019-02-14T04:37:44.979Z,66.56
2019-02-14T04:38:50.183Z,66.58
2019-02-14T04:39:55.162Z,66.62
2019-02-14T04:41:00.141Z,66.70
2019-02-14T04:42:05.141Z,66.72
2019-02-14T04:43:10.091Z,66.75
2019-02-14T04:44:15.393Z,66.75
2019-02-14T04:45:20.306Z,66.76
2019-02-14T04:46:25.342Z,66.77
2019-02-14T04:47:33.353Z,66.75
2019-02-14T04:48:38.315Z,66.75
2019-02-14T04:49:43.632Z,66.81
2019-02-14T04:50:48.497Z,66.84
2019-02-14T04:51:53.522Z,66.81
2019-02-14T04:52:58.442Z,66.82
2019-02-14T04:54:03.383Z,66.79
2019-02-14T04:55:08.868Z,66.79
2019-02-14T04:56:13.863Z,66.78
2019-02-14T04:57:18.743Z,66.77
2019-02-14T04:58:23.638Z,66.76
2019-02-14T04:59:28.852Z,66.77
2019-02-14T05:00:33.803Z,66.74
2019-02-14T05:01:38.747Z,66.76
2019-02-14T05:02:43.955Z,66.76
2019-02-14T05:03:48.848Z,66.72
2019-02-14T05:04:53.891Z,66.70
2019-02-14T05:05:58.797Z,66.70
2019-02-14T05:07:04.256Z,66.71
2019-02-14T05:08:09.174Z,66.76
2019-02-14T05:09:14.230Z,66.80
2019-02-14T05:10:19.133Z,66.81
2019-02-14T05:11:24.084Z,66.81
2019-02-14T05:12:29.372Z,66.82
2019-02-14T05:13:34.670Z,66.81
2019-02-14T05:14:39.705Z,66.80
2019-02-14T05:15:44.684Z,66.78
2019-02-14T05:16:49.639Z,66.77
2019-02-14T05:17:54.679Z,66.77
2019-02-14T05:18:59.558Z,66.77
2019-02-14T05:20:05.011Z,66.77
2019-02-14T05:21:09.905Z,66.75
2019-02-14T05:22:14.917Z,66.73
2019-02-14T05:23:19.858Z,66.73
2019-02-14T05:24:25.032Z,66.71
2019-02-14T05:25:29.975Z,66.69
2019-02-14T05:26:34.870Z,66.68
2019-02-14T05:27:39.816Z,66.70
2019-02-14T05:28:44.738Z,66.70
2019-02-14T05:29:49.905Z,66.72
2019-02-14T05:30:54.883Z,66.75
2019-02-14T05:31:59.806Z,66.78
2019-02-14T05:33:04.713Z,66.75
2019-02-14T05:34:09.611Z,66.77
2019-02-14T05:35:14.672Z,66.77
2019-02-14T05:36:19.575Z,66.82
2019-02-14T05:37:24.502Z,66.81
2019-02-14T05:38:29.387Z,66.82
2019-02-14T05:39:34.262Z,66.77
2019-02-14T05:40:39.184Z,66.86
2019-02-14T05:41:44.081Z,66.86
2019-02-14T05:42:55.993Z,66.91
2019-02-14T05:44:01.808Z,66.92
2019-02-14T05:45:07.297Z,66.93
2019-02-14T05:46:12.339Z,66.98
2019-02-14T05:47:18.199Z,67.00
2019-02-14T05:48:23.474Z,67.01
2019-02-14T05:49:28.466Z,67.00
2019-02-14T05:50:33.485Z,67.02
2019-02-14T05:51:38.639Z,67.00
2019-02-14T05:52:43.535Z,67.01
2019-02-14T05:53:48.451Z,66.98
2019-02-14T05:54:53.704Z,67.01
2019-02-14T05:55:58.635Z,67.04
2019-02-14T05:57:03.572Z,67.08
2019-02-14T05:58:08.551Z,67.10
2019-02-14T05:59:13.710Z,67.08
2019-02-14T06:00:19.596Z,67.03
2019-02-14T06:01:24.546Z,66.96
2019-02-14T06:02:29.481Z,66.93
2019-02-14T06:03:34.402Z,66.92
2019-02-14T06:04:39.343Z,66.87
2019-02-14T06:05:44.282Z,66.87
2019-02-14T06:06:49.227Z,66.85
2019-02-14T06:07:54.246Z,66.81
2019-02-14T06:08:59.194Z,66.80
2019-02-14T06:10:04.975Z,66.84
2019-02-14T06:11:09.896Z,66.86
2019-02-14T06:12:14.941Z,66.91
2019-02-14T06:13:20.252Z,66.94
2019-02-14T06:14:25.189Z,66.91
2019-02-14T06:15:30.383Z,66.88
2019-02-14T06:16:35.619Z,66.91
2019-02-14T06:17:40.669Z,66.94
2019-02-14T06:18:45.585Z,66.98
2019-02-14T06:19:50.802Z,67.02
2019-02-14T06:20:55.754Z,67.06
2019-02-14T06:22:00.740Z,67.09
2019-02-14T06:23:05.632Z,67.15
2019-02-14T06:24:10.829Z,67.17
2019-02-14T06:25:16.076Z,67.24
2019-02-14T06:26:21.015Z,67.21
2019-02-14T06:27:26.210Z,67.17
2019-02-14T06:28:31.084Z,67.11
2019-02-14T06:29:36.671Z,67.11
2019-02-14T06:30:41.885Z,67.06
2019-02-14T06:31:46.763Z,67.05
2019-02-14T06:32:51.759Z,67.08
2019-02-14T06:33:56.870Z,67.12
2019-02-14T06:35:01.856Z,67.16
2019-02-14T06:36:06.815Z,67.21
2019-02-14T06:37:11.698Z,67.20
2019-02-14T06:38:16.622Z,67.22
2019-02-14T06:39:21.626Z,67.23
2019-02-14T06:40:26.526Z,67.19
2019-02-14T06:41:31.785Z,67.25
2019-02-14T06:42:37.000Z,67.25
2019-02-14T06:43:42.269Z,67.26
2019-02-14T06:44:47.699Z,67.23
2019-02-14T06:45:52.657Z,67.22
2019-02-14T06:46:57.945Z,67.18
2019-02-14T06:48:02.949Z,67.20
2019-02-14T06:49:08.199Z,67.19
2019-02-14T06:50:13.191Z,67.22
2019-02-14T06:51:18.463Z,67.24
2019-02-14T06:52:23.675Z,67.29
2019-02-14T06:53:28.665Z,67.32
2019-02-14T06:54:33.596Z,67.35
2019-02-14T06:55:38.598Z,67.35
2019-02-14T06:56:43.618Z,67.35
2019-02-14T06:57:48.570Z,67.35
2019-02-14T06:58:53.523Z,67.31
2019-02-14T06:59:58.581Z,67.33
2019-02-14T07:01:03.477Z,67.34
2019-02-14T07:02:08.417Z,67.40
2019-02-14T07:03:13.708Z,67.44
2019-02-14T07:04:18.990Z,67.48
2019-02-14T07:05:24.147Z,67.50
2019-02-14T07:06:29.089Z,67.52
2019-02-14T07:07:34.409Z,67.53
2019-02-14T07:08:39.672Z,67.51
2019-02-14T07:09:44.926Z,67.48
2019-02-14T07:10:49.859Z,67.47
2019-02-14T07:11:55.176Z,67.46
2019-02-14T07:13:00.475Z,67.46
2019-02-14T07:14:05.481Z,67.42
2019-02-14T07:15:11.221Z,67.41
2019-02-14T07:16:16.147Z,67.36
2019-02-14T07:17:21.112Z,67.32
2019-02-14T07:18:26.488Z,67.30
2019-02-14T07:19:31.692Z,67.28
2019-02-14T07:20:36.618Z,67.27
2019-02-14T07:21:41.564Z,67.22
2019-02-14T07:22:46.465Z,67.19
2019-02-14T07:23:51.833Z,67.20
2019-02-14T07:24:56.819Z,67.21
2019-02-14T07:26:01.729Z,67.19
2019-02-14T07:27:07.317Z,67.22
2019-02-14T07:28:12.305Z,67.24
2019-02-14T07:29:17.778Z,67.24
2019-02-14T07:30:22.687Z,67.26
2019-02-14T07:31:27.743Z,67.28
2019-02-14T07:32:32.628Z,67.29
2019-02-14T07:33:37.953Z,67.21
2019-02-14T07:34:43.172Z,67.17
2019-02-14T07:35:48.460Z,67.14
2019-02-14T07:36:53.339Z,67.07
2019-02-14T07:37:58.441Z,67.02
2019-02-14T07:39:04.578Z,66.99
2019-02-14T07:40:11.667Z,66.99
2019-02-14T07:41:16.690Z,66.95
2019-02-14T07:42:21.939Z,66.91
2019-02-14T07:43:27.041Z,66.94
2019-02-14T07:44:31.998Z,66.96
2019-02-14T07:45:36.916Z,66.94
2019-02-14T07:46:41.814Z,66.95
2019-02-14T07:47:47.244Z,66.89
2019-02-14T07:48:52.243Z,66.92
2019-02-14T07:49:57.132Z,66.91
2019-02-14T07:51:02.065Z,66.90
2019-02-14T07:52:06.990Z,66.82
2019-02-14T07:53:11.964Z,66.82
2019-02-14T07:54:16.899Z,66.79
2019-02-14T07:55:22.209Z,66.73
2019-02-14T07:56:27.548Z,66.71
2019-02-14T07:57:32.514Z,66.68
2019-02-14T07:58:37.422Z,66.67
2019-02-14T07:59:42.380Z,66.64
2019-02-14T08:00:47.385Z,66.65
2019-02-14T08:01:53.102Z,66.66
2019-02-14T08:02:58.025Z,66.64
2019-02-14T08:04:03.441Z,66.53
2019-02-14T08:05:08.645Z,66.52
2019-02-14T08:06:13.611Z,66.48
2019-02-14T08:07:18.545Z,66.43
2019-02-14T08:08:23.549Z,66.38
2019-02-14T08:09:28.522Z,66.36
2019-02-14T08:10:33.467Z,66.29
2019-02-14T08:11:38.860Z,66.25
2019-02-14T08:12:43.811Z,66.23
2019-02-14T08:13:49.372Z,66.13
2019-02-14T08:14:54.949Z,66.15
2019-02-14T08:15:59.845Z,66.08
2019-02-14T08:17:04.816Z,66.04
2019-02-14T08:18:09.753Z,65.92
2019-02-14T08:19:14.706Z,65.90
2019-02-14T08:20:19.915Z,65.87
2019-02-14T08:21:25.129Z,65.80
2019-02-14T08:22:30.019Z,65.78
2019-02-14T08:23:34.993Z,65.68
2019-02-14T08:24:39.941Z,65.67
2019-02-14T08:25:44.867Z,65.59
2019-02-14T08:26:49.835Z,65.49
2019-02-14T08:27:55.081Z,65.42
2019-02-14T08:29:00.350Z,65.36
2019-02-14T08:30:06.659Z,65.30
2019-02-14T08:31:12.285Z,65.23
2019-02-14T08:32:17.216Z,65.20
2019-02-14T08:33:22.115Z,65.17
2019-02-14T08:34:27.146Z,65.11
2019-02-14T08:35:32.275Z,65.09
2019-02-14T08:36:37.363Z,65.03
2019-02-14T08:37:45.911Z,65.04
2019-02-14T08:38:49.749Z,64.97
2019-02-14T08:39:54.728Z,64.94
2019-02-14T08:40:59.699Z,64.84
2019-02-14T08:42:04.615Z,64.82
2019-02-14T08:43:09.601Z,64.77
2019-02-14T08:44:14.550Z,64.63
2019-02-14T08:45:19.906Z,64.60
2019-02-14T08:46:24.936Z,64.56
2019-02-14T08:47:30.562Z,64.45
2019-02-14T08:48:35.524Z,64.39
2019-02-14T08:49:40.928Z,64.39
2019-02-14T08:50:45.949Z,64.28
2019-02-14T08:51:50.896Z,64.25
2019-02-14T08:52:55.928Z,64.18
2019-02-14T08:54:00.873Z,64.09
2019-02-14T08:55:06.299Z,64.09
2019-02-14T08:56:11.209Z,64.07
2019-02-14T08:57:16.482Z,64.05
2019-02-14T08:58:21.534Z,63.96
2019-02-14T08:59:26.550Z,63.99
2019-02-14T09:00:31.630Z,63.94
2019-02-14T09:01:36.570Z,63.89
2019-02-14T09:02:41.582Z,63.80
2019-02-14T09:03:46.547Z,63.75
2019-02-14T09:04:51.455Z,63.72
2019-02-14T09:05:56.722Z,63.68
2019-02-14T09:07:01.723Z,63.65
2019-02-14T09:08:06.983Z,63.63
2019-02-14T09:09:12.382Z,63.63
2019-02-14T09:10:18.105Z,63.59
2019-02-14T09:11:23.094Z,63.47
2019-02-14T09:12:28.048Z,63.46
2019-02-14T09:13:33.634Z,63.39
2019-02-14T09:14:38.933Z,63.37
2019-02-14T09:15:44.213Z,63.35
2019-02-14T09:16:49.380Z,63.32
2019-02-14T09:17:54.329Z,63.28
2019-02-14T09:18:59.311Z,63.23
2019-02-14T09:20:04.751Z,63.23
2019-02-14T09:21:09.726Z,63.21
2019-02-14T09:22:14.763Z,63.13
2019-02-14T09:23:19.783Z,63.09
2019-02-14T09:24:24.723Z,63.02
2019-02-14T09:25:29.670Z,62.99
2019-02-14T09:26:35.033Z,62.92
2019-02-14T09:27:40.094Z,62.87
2019-02-14T09:28:45.004Z,62.86
2019-02-14T09:29:50.309Z,62.77
2019-02-14T09:30:55.218Z,62.67
2019-02-14T09:32:00.463Z,62.63
2019-02-14T09:33:05.501Z,62.51
2019-02-14T09:34:10.434Z,62.45
2019-02-14T09:35:15.433Z,62.37
2019-02-14T09:36:20.355Z,62.30
2019-02-14T09:37:25.292Z,62.16
2019-02-14T09:38:30.311Z,62.08
2019-02-14T09:39:40.883Z,62.00
2019-02-14T09:40:42.319Z,61.90
2019-02-14T09:41:47.309Z,61.84
2019-02-14T09:42:52.197Z,61.76
2019-02-14T09:43:57.242Z,61.67
2019-02-14T09:45:02.542Z,61.50
2019-02-14T09:46:07.654Z,61.47
2019-02-14T09:47:12.893Z,61.34
2019-02-14T09:48:17.873Z,61.35
2019-02-14T09:49:22.817Z,61.26
2019-02-14T09:50:28.158Z,61.25
2019-02-14T09:51:33.102Z,61.20
2019-02-14T09:52:38.119Z,61.15
2019-02-14T09:53:44.040Z,61.10
2019-02-14T09:54:48.983Z,61.02
2019-02-14T09:55:54.550Z,60.98
2019-02-14T09:56:59.480Z,60.84
2019-02-14T09:58:04.472Z,60.73
2019-02-14T09:59:09.837Z,60.71
2019-02-14T10:00:16.005Z,60.59
2019-02-14T10:01:21.324Z,60.45
2019-02-14T10:02:26.280Z,60.40
2019-02-14T10:05:40.234Z,60.24
2019-02-14T10:06:45.142Z,60.15
2019-02-14T10:07:50.094Z,60.11
2019-02-14T10:08:54.998Z,60.04
2019-02-14T10:09:59.998Z,60.05
2019-02-14T10:11:05.019Z,60.02
2019-02-14T10:12:09.929Z,59.96
2019-02-14T10:13:14.799Z,59.98
2019-02-14T10:14:19.833Z,59.97
2019-02-14T10:15:24.893Z,59.93
2019-02-14T10:16:30.194Z,59.91
2019-02-14T10:17:35.124Z,59.91
2019-02-14T10:18:40.090Z,59.90
2019-02-14T10:19:45.048Z,59.86
2019-02-14T10:20:49.986Z,59.87
2019-02-14T10:21:55.005Z,59.88
2019-02-14T10:22:59.914Z,59.85
2019-02-14T10:24:04.944Z,59.85
2019-02-14T10:25:11.210Z,59.80
2019-02-14T10:26:16.185Z,59.77
2019-02-14T10:27:21.398Z,59.77
2019-02-14T10:28:26.301Z,59.73
2019-02-14T10:29:31.566Z,59.72
2019-02-14T10:30:36.880Z,59.68
2019-02-14T10:31:41.825Z,59.62
2019-02-14T10:32:46.801Z,59.58
2019-02-14T10:33:51.705Z,59.54
2019-02-14T10:34:56.665Z,59.47
2019-02-14T10:36:01.562Z,59.43
2019-02-14T10:37:06.659Z,59.34
2019-02-14T10:38:11.832Z,59.27
2019-02-14T10:39:17.119Z,59.17
2019-02-14T10:40:22.212Z,59.08
2019-02-14T10:41:29.214Z,59.03
2019-02-14T10:42:33.852Z,58.93
2019-02-14T10:43:38.902Z,58.85
2019-02-14T10:44:43.848Z,58.75
2019-02-14T10:45:48.766Z,58.55
2019-02-14T10:46:53.691Z,58.49
2019-02-14T10:47:58.948Z,58.37
2019-02-14T10:49:04.339Z,58.21
2019-02-14T10:50:10.457Z,58.16
2019-02-14T10:51:15.466Z,58.11
2019-02-14T10:52:20.400Z,58.07
2019-02-14T10:53:25.606Z,58.07
2019-02-14T10:54:30.871Z,58.04
2019-02-14T10:55:35.896Z,58.02
2019-02-14T10:56:41.381Z,57.99
2019-02-14T10:57:46.584Z,57.94
2019-02-14T10:58:51.630Z,57.86
2019-02-14T10:59:56.898Z,57.81
2019-02-14T11:01:02.125Z,57.75
2019-02-14T11:02:07.237Z,57.66
2019-02-14T11:03:12.862Z,57.65
2019-02-14T11:04:18.103Z,57.63
2019-02-14T11:05:23.151Z,57.66
2019-02-14T11:06:28.153Z,57.62
2019-02-14T11:07:33.691Z,57.59
2019-02-14T11:08:38.939Z,57.54
2019-02-14T11:09:43.972Z,57.49
2019-02-14T11:10:49.380Z,57.44
2019-02-14T11:11:54.657Z,57.40
2019-02-14T11:12:59.655Z,57.34
2019-02-14T11:14:04.784Z,57.30
2019-02-14T11:15:11.416Z,57.28
2019-02-14T11:16:16.436Z,57.25
2019-02-14T11:17:21.337Z,57.23
2019-02-14T11:18:26.257Z,57.20
2019-02-14T11:19:31.341Z,57.15
2019-02-14T11:20:36.336Z,57.10
2019-02-14T11:21:41.386Z,57.05
2019-02-14T11:22:48.777Z,57.06
2019-02-14T11:23:53.292Z,57.04
2019-02-14T11:24:59.347Z,56.98
2019-02-14T11:26:04.528Z,56.92
2019-02-14T11:27:09.469Z,56.81
2019-02-14T11:28:14.386Z,56.68
2019-02-14T11:29:19.339Z,56.63
2019-02-14T11:30:24.333Z,56.46
2019-02-14T11:31:29.595Z,56.33
2019-02-14T11:32:34.612Z,56.22
2019-02-14T11:33:39.634Z,56.10
2019-02-14T11:34:44.547Z,56.00
2019-02-14T11:35:49.595Z,55.87
2019-02-14T11:36:54.585Z,55.82
2019-02-14T11:37:59.808Z,55.76
2019-02-14T11:39:09.008Z,55.67
2019-02-14T11:40:14.111Z,55.56
2019-02-14T11:41:19.025Z,55.41
2019-02-14T11:42:24.245Z,55.24
2019-02-14T11:43:29.264Z,55.08
2019-02-14T11:44:39.765Z,54.98
2019-02-14T11:45:41.443Z,54.88
2019-02-14T11:46:51.499Z,54.78
2019-02-14T11:47:53.058Z,54.69
2019-02-14T11:48:57.993Z,54.58
2019-02-14T11:50:02.960Z,54.51
2019-02-14T11:51:07.904Z,54.39
2019-02-14T11:52:13.173Z,54.29
2019-02-14T11:53:18.086Z,54.21
2019-02-14T11:54:23.300Z,54.10
2019-02-14T11:55:29.162Z,53.90
2019-02-14T11:56:34.112Z,53.78
2019-02-14T11:57:39.039Z,53.67
2019-02-14T11:58:44.054Z,53.57
2019-02-14T11:59:48.989Z,53.44
2019-02-14T12:00:53.888Z,53.29
2019-02-14T12:01:58.791Z,53.13
2019-02-14T12:03:03.846Z,52.91
2019-02-14T12:04:09.145Z,52.84
2019-02-14T12:05:14.169Z,52.72
2019-02-14T12:06:19.055Z,52.67
2019-02-14T12:07:24.022Z,52.62
2019-02-14T12:08:28.955Z,52.55
2019-02-14T12:09:33.900Z,52.54
2019-02-14T12:10:38.912Z,52.48
2019-02-14T12:11:43.867Z,52.40
2019-02-14T12:12:48.805Z,52.26
2019-02-14T12:13:54.107Z,52.14
2019-02-14T12:14:59.115Z,51.98
2019-02-14T12:16:04.409Z,51.90
2019-02-14T12:17:09.495Z,51.79
2019-02-14T12:18:14.848Z,51.57
2019-02-14T12:19:19.872Z,51.41
2019-02-14T12:20:24.809Z,51.15
2019-02-14T12:21:29.736Z,51.00
2019-02-14T12:22:34.712Z,50.88
2019-02-14T12:23:39.962Z,50.73
2019-02-14T12:24:44.891Z,50.63
2019-02-14T12:25:49.830Z,50.53
2019-02-14T12:26:54.813Z,50.48
2019-02-14T12:27:59.745Z,50.37
2019-02-14T12:29:04.738Z,50.30
2019-02-14T12:30:11.990Z,50.25
2019-02-14T12:31:18.599Z,50.17
2019-02-14T12:32:23.813Z,50.08
2019-02-14T12:33:28.720Z,50.01
2019-02-14T12:34:34.019Z,49.96
2019-02-14T12:35:38.992Z,49.92
2019-02-14T12:36:44.137Z,49.79
2019-02-14T12:37:49.163Z,49.78
2019-02-14T12:38:54.096Z,49.73
2019-02-14T12:39:58.979Z,49.72
2019-02-14T12:41:03.950Z,49.70
2019-02-14T12:42:08.877Z,49.70
2019-02-14T12:43:14.255Z,49.73
2019-02-14T12:44:19.182Z,49.79
2019-02-14T12:45:26.085Z,49.82
2019-02-14T12:46:30.833Z,49.87
2019-02-14T12:47:35.772Z,49.93
2019-02-14T12:48:40.790Z,50.00
2019-02-14T12:49:45.752Z,50.04
2019-02-14T12:50:50.667Z,50.06
2019-02-14T12:51:55.911Z,50.11
2019-02-14T12:53:01.134Z,50.10
2019-02-14T12:54:06.030Z,50.11
2019-02-14T12:55:11.136Z,50.12
2019-02-14T12:56:16.081Z,50.11
2019-02-14T12:57:21.206Z,50.11
2019-02-14T12:58:26.109Z,50.14
2019-02-14T12:59:31.034Z,50.11
2019-02-14T13:00:35.961Z,50.07
2019-02-14T13:01:41.212Z,50.08
2019-02-14T13:02:46.179Z,50.14
2019-02-14T13:03:51.113Z,50.17
2019-02-14T13:04:56.132Z,50.16
2019-02-14T13:06:01.178Z,50.17
2019-02-14T13:07:06.622Z,50.23
2019-02-14T13:08:11.627Z,50.23
2019-02-14T13:09:20.080Z,50.26
2019-02-14T13:10:23.443Z,50.30
2019-02-14T13:11:28.665Z,50.34
2019-02-14T13:12:33.629Z,50.33
2019-02-14T13:13:38.886Z,50.37
2019-02-14T13:14:44.149Z,50.40
2019-02-14T13:15:49.429Z,50.41
2019-02-14T13:16:54.413Z,50.41
2019-02-14T13:17:59.887Z,50.38
2019-02-14T13:19:04.964Z,50.31
2019-02-14T13:20:09.992Z,50.19
2019-02-14T13:21:15.549Z,50.11
2019-02-14T13:22:20.480Z,50.06
2019-02-14T13:23:25.560Z,50.01
2019-02-14T13:24:30.566Z,49.92
2019-02-14T13:25:35.503Z,49.80
2019-02-14T13:26:40.429Z,49.74
2019-02-14T13:27:45.469Z,49.66
2019-02-14T13:28:50.476Z,49.39
2019-02-14T13:29:55.359Z,49.39
2019-02-14T13:31:00.406Z,49.14
2019-02-14T13:32:05.503Z,49.01
2019-02-14T13:33:10.809Z,48.66
2019-02-14T13:34:15.866Z,48.66
2019-02-14T13:35:20.900Z,48.62
2019-02-14T13:36:25.932Z,48.83
2019-02-14T13:37:31.004Z,48.41
2019-02-14T13:38:36.009Z,48.31
2019-02-14T13:39:40.890Z,48.08
2019-02-14T13:40:45.850Z,47.91
2019-02-14T13:41:51.046Z,47.61
2019-02-14T13:42:56.308Z,47.61
2019-02-14T13:44:01.504Z,46.98
2019-02-14T13:45:08.851Z,46.98
2019-02-14T13:46:13.815Z,47.08
2019-02-14T13:47:18.717Z,46.94
2019-02-14T13:48:23.783Z,46.81
2019-02-14T13:49:28.968Z,46.69
2019-02-14T13:50:34.333Z,46.53
2019-02-14T13:51:39.310Z,46.47
2019-02-14T13:52:44.655Z,46.28
2019-02-14T13:53:49.608Z,46.19
2019-02-14T13:54:54.628Z,46.13
2019-02-14T13:55:59.706Z,46.06
2019-02-14T13:57:04.772Z,45.95
2019-02-14T13:58:09.977Z,45.81
2019-02-14T13:59:15.005Z,45.71
2019-02-14T14:00:25.307Z,45.63
2019-02-14T14:01:30.629Z,45.59